Time;durP1;ratioP1;P1;durP2;ratioP2;P2;SDS_P1;SDS_P2;PMS_P1;PMS_P2;Temp;Humidity;BMP_temperature;BMP_pressure;BME280_temperature;BME280_humidity;BME280_pressure;Samples;Min_cycle;Max_cycle;Signal;HPM_P1;HPM_P2
2023/01/15 00:01:21;;;;;;;10.68;1.77;;;6.30;99.90;;;;;;5009137;28;20399;-52
2023/01/15 00:03:46;;;;;;;12.40;1.73;;;6.30;99.90;;;;;;4999480;28;20042;-52
2023/01/15 00:06:12;;;;;;;12.13;1.85;;;6.30;99.90;;;;;;5009646;28;20132;-53
2023/01/15 00:08:37;;;;;;;8.85;2.05;;;6.30;99.90;;;;;;5007273;28;20398;-54
2023/01/15 00:11:04;;;;;;;10.88;2.28;;;6.30;99.90;;;;;;5007571;28;20069;-53
2023/01/15 00:13:29;;;;;;;9.10;1.75;;;6.30;99.90;;;;;;5007547;28;20038;-57
2023/01/15 00:16:06;;;;;;;7.90;1.90;;;6.30;99.90;;;;;;5004829;28;20404;-53
2023/01/15 00:18:31;;;;;;;9.57;1.85;;;6.30;99.90;;;;;;5005604;28;20049;-52
2023/01/15 00:20:59;;;;;;;10.07;1.98;;;6.30;99.90;;;;;;5008824;28;20388;-54
2023/01/15 00:28:57;;;;;;;8.85;2.13;;;6.30;99.90;;;;;;5002681;28;20042;-52
2023/01/15 00:31:23;;;;;;;9.55;1.90;;;6.30;99.90;;;;;;5003556;28;20038;-56
2023/01/15 00:33:49;;;;;;;11.75;1.77;;;6.30;99.90;;;;;;5002511;28;20508;-53
2023/01/15 00:36:14;;;;;;;12.95;1.85;;;6.30;99.90;;;;;;4985556;28;20050;-53
2023/01/15 00:38:40;;;;;;;12.52;2.03;;;6.30;99.90;;;;;;4995412;28;20034;-56
2023/01/15 00:41:05;;;;;;;9.85;2.00;;;6.20;99.90;;;;;;4995108;28;20397;-55
2023/01/15 00:43:31;;;;;;;9.20;1.50;;;6.20;99.90;;;;;;4998586;28;20037;-51
2023/01/15 00:45:57;;;;;;;10.95;1.90;;;6.20;99.90;;;;;;5005801;28;20169;-53
2023/01/15 00:48:22;;;;;;;11.65;2.20;;;6.20;99.90;;;;;;5002444;28;20034;-53
2023/01/15 00:50:48;;;;;;;10.90;1.73;;;6.20;99.90;;;;;;5003410;28;20045;-54
2023/01/15 00:53:13;;;;;;;10.52;2.25;;;6.20;99.90;;;;;;5001477;28;20034;-54
2023/01/15 00:55:39;;;;;;;8.73;2.17;;;6.20;99.90;;;;;;5000578;28;20092;-53
2023/01/15 00:58:04;;;;;;;9.43;2.03;;;6.20;99.90;;;;;;5002446;28;20264;-57
2023/01/15 01:00:30;;;;;;;12.25;1.85;;;6.20;99.90;;;;;;5001935;28;20038;-56
2023/01/15 01:02:56;;;;;;;10.95;2.15;;;6.10;99.90;;;;;;5000591;28;20116;-56
2023/01/15 01:05:22;;;;;;;8.50;1.75;;;6.20;99.90;;;;;;5001208;28;20132;-52
2023/01/15 01:07:47;;;;;;;9.57;1.73;;;6.10;99.90;;;;;;5001977;28;20057;-53
2023/01/15 01:10:13;;;;;;;9.80;1.52;;;6.10;99.90;;;;;;5000275;28;20034;-52
2023/01/15 01:12:39;;;;;;;13.90;2.40;;;6.10;99.90;;;;;;5002236;28;20502;-53
2023/01/15 01:15:05;;;;;;;8.00;1.90;;;6.10;99.90;;;;;;5012206;28;20049;-51
2023/01/15 01:17:30;;;;;;;13.80;2.10;;;6.10;99.90;;;;;;5005276;28;20053;-50
2023/01/15 01:19:56;;;;;;;11.40;1.95;;;6.10;99.90;;;;;;5006235;28;20043;-51
2023/01/15 01:22:21;;;;;;;16.73;2.10;;;6.10;99.90;;;;;;5012295;28;20105;-53
2023/01/15 01:24:47;;;;;;;9.57;1.70;;;6.10;99.90;;;;;;5002208;28;20049;-50
2023/01/15 01:27:13;;;;;;;10.10;2.03;;;6.10;99.90;;;;;;5004709;28;20065;-51
2023/01/15 01:29:38;;;;;;;8.45;1.60;;;6.10;99.90;;;;;;5006675;28;20172;-51
2023/01/15 01:32:04;;;;;;;10.35;2.25;;;6.10;99.90;;;;;;5006358;28;20050;-52
2023/01/15 01:34:30;;;;;;;16.15;2.08;;;6.10;99.90;;;;;;5002670;28;20048;-54
2023/01/15 01:36:56;;;;;;;9.82;1.92;;;6.10;99.90;;;;;;5005061;28;20387;-51
2023/01/15 01:39:22;;;;;;;12.00;2.08;;;6.10;99.90;;;;;;5012522;28;20056;-51
2023/01/15 01:41:48;;;;;;;15.75;2.00;;;6.00;99.90;;;;;;5006168;28;20045;-53
2023/01/15 01:44:42;;;;;;;11.13;2.03;;;6.00;99.90;;;;;;5004857;28;20407;-51
2023/01/15 01:47:17;;;;;;;9.48;1.67;;;6.00;99.90;;;;;;4987192;28;20564;-54
2023/01/15 01:49:45;;;;;;;13.13;2.00;;;6.00;99.90;;;;;;5009046;28;20524;-56
2023/01/15 01:52:19;;;;;;;11.07;1.83;;;6.00;99.90;;;;;;5008726;28;20303;-55
2023/01/15 01:54:48;;;;;;;17.13;2.95;;;6.00;99.90;;;;;;5008759;28;20084;-53
2023/01/15 01:57:15;;;;;;;8.07;1.80;;;6.00;99.90;;;;;;5012496;28;20038;-51
2023/01/15 01:59:41;;;;;;;8.52;1.95;;;6.00;99.90;;;;;;5010441;28;20064;-55
2023/01/15 02:02:06;;;;;;;10.60;2.00;;;5.90;99.90;;;;;;5011517;28;20069;-52
2023/01/15 02:04:33;;;;;;;12.55;2.05;;;5.90;99.90;;;;;;5013100;28;20484;-51
2023/01/15 02:07:00;;;;;;;13.55;2.00;;;5.90;99.90;;;;;;4992973;28;20050;-52
2023/01/15 02:09:25;;;;;;;8.38;1.55;;;6.00;99.90;;;;;;5006635;28;20408;-56
2023/01/15 02:11:55;;;;;;;9.10;2.40;;;6.00;99.90;;;;;;5006485;28;20041;-52
2023/01/15 02:14:34;;;;;;;9.85;1.90;;;6.00;99.90;;;;;;5016582;28;20042;-54
2023/01/15 02:17:23;;;;;;;11.65;1.90;;;6.00;99.90;;;;;;5016953;28;20050;-55
2023/01/15 02:20:32;;;;;;;11.40;2.17;;;6.00;99.90;;;;;;5013129;28;20053;-57
2023/01/15 02:23:03;;;;;;;11.13;1.80;;;5.90;99.90;;;;;;4970899;28;20050;-55
2023/01/15 02:25:39;;;;;;;13.98;2.50;;;5.90;99.90;;;;;;4973798;28;20125;-54
2023/01/15 02:28:17;;;;;;;13.02;1.90;;;5.90;99.90;;;;;;4957158;28;20098;-54
2023/01/15 02:30:47;;;;;;;12.15;2.05;;;5.90;99.90;;;;;;4964980;28;20047;-54
2023/01/15 02:33:19;;;;;;;15.48;1.98;;;5.90;99.90;;;;;;4965597;28;20098;-56
2023/01/15 02:35:57;;;;;;;11.60;2.00;;;5.90;99.90;;;;;;4964051;28;20101;-54
2023/01/15 02:38:27;;;;;;;12.77;2.45;;;5.90;99.90;;;;;;4964851;28;20049;-55
2023/01/15 02:40:57;;;;;;;11.93;2.55;;;5.90;99.90;;;;;;4964704;28;20164;-54
2023/01/15 02:43:26;;;;;;;15.63;2.20;;;5.80;99.90;;;;;;4964669;28;20043;-54
2023/01/15 02:45:55;;;;;;;13.18;2.50;;;5.80;99.90;;;;;;4965350;28;20133;-51
2023/01/15 02:48:25;;;;;;;12.05;2.13;;;5.80;99.90;;;;;;4967320;28;20524;-51
2023/01/15 02:51:14;;;;;;;12.15;2.25;;;5.80;99.90;;;;;;4973684;28;20169;-52
2023/01/15 02:53:43;;;;;;;8.50;1.70;;;5.80;99.90;;;;;;4984453;28;20054;-51
2023/01/15 02:56:15;;;;;;;13.02;2.63;;;5.80;99.90;;;;;;5012320;28;20045;-52
2023/01/15 02:58:43;;;;;;;15.40;2.50;;;5.80;99.90;;;;;;5002655;28;20069;-56
2023/01/15 03:01:15;;;;;;;13.52;2.28;;;5.80;99.90;;;;;;5002557;28;20134;-52
2023/01/15 03:04:06;;;;;;;13.60;2.40;;;5.80;99.90;;;;;;5004910;28;20092;-53
2023/01/15 03:06:34;;;;;;;11.35;2.00;;;5.80;99.90;;;;;;5004082;28;20692;-53
2023/01/15 03:09:00;;;;;;;12.90;2.47;;;5.80;99.90;;;;;;5000377;28;20038;-50
2023/01/15 03:11:27;;;;;;;12.40;2.22;;;5.80;99.90;;;;;;5003839;28;20161;-51
2023/01/15 03:14:01;;;;;;;11.98;2.28;;;5.80;99.90;;;;;;5003781;28;20045;-52
2023/01/15 03:16:34;;;;;;;11.80;1.90;;;5.80;99.90;;;;;;5002430;28;20124;-53
2023/01/15 03:19:03;;;;;;;13.25;2.58;;;5.70;99.90;;;;;;4998853;28;20050;-52
2023/01/15 03:22:06;;;;;;;20.40;2.72;;;5.80;99.90;;;;;;5007752;28;20046;-53
2023/01/15 03:24:46;;;;;;;10.43;2.35;;;5.80;99.90;;;;;;5006126;28;20064;-53
2023/01/15 03:27:12;;;;;;;13.18;2.22;;;5.70;99.90;;;;;;5012182;28;20057;-54
2023/01/15 03:29:41;;;;;;;17.08;2.35;;;5.70;99.90;;;;;;5014239;28;20048;-55
2023/01/15 03:32:07;;;;;;;8.80;2.03;;;5.70;99.90;;;;;;5012298;28;20042;-52
2023/01/15 03:34:43;;;;;;;12.93;2.33;;;5.70;99.90;;;;;;5007277;28;20115;-51
2023/01/15 03:37:09;;;;;;;16.33;2.78;;;5.80;99.90;;;;;;5012353;28;20046;-52
2023/01/15 03:39:35;;;;;;;16.65;3.05;;;5.80;99.90;;;;;;5010282;28;20069;-55
2023/01/15 03:42:15;;;;;;;15.20;2.47;;;5.80;99.90;;;;;;5002679;28;20073;-51
2023/01/15 03:44:53;;;;;;;16.33;2.47;;;5.80;99.90;;;;;;5002072;28;20084;-53
2023/01/15 03:47:46;;;;;;;11.45;2.40;;;5.80;99.90;;;;;;5002527;28;20091;-54
2023/01/15 03:50:32;;;;;;;9.23;2.13;;;5.80;99.90;;;;;;5001947;28;20054;-51
2023/01/15 03:53:14;;;;;;;15.45;3.33;;;5.80;99.90;;;;;;5006706;28;20041;-54
2023/01/15 03:56:22;;;;;;;14.27;2.20;;;5.90;99.90;;;;;;5002214;28;20049;-51
2023/01/15 03:58:52;;;;;;;15.07;2.95;;;5.80;99.90;;;;;;5003629;28;20069;-54
2023/01/15 04:01:24;;;;;;;7.85;1.95;;;5.80;99.90;;;;;;5002771;28;20445;-52
2023/01/15 04:03:51;;;;;;;18.05;2.75;;;5.70;99.90;;;;;;5001966;28;20056;-52
2023/01/15 04:06:17;;;;;;;15.32;2.65;;;5.80;99.90;;;;;;5003270;28;20596;-51
2023/01/15 04:08:45;;;;;;;12.35;2.13;;;5.70;99.90;;;;;;4999564;28;20089;-54
2023/01/15 04:11:11;;;;;;;14.73;2.47;;;5.70;99.90;;;;;;4989895;28;20052;-52
2023/01/15 04:13:36;;;;;;;14.15;2.15;;;5.70;99.90;;;;;;4998759;28;20034;-49
2023/01/15 04:16:02;;;;;;;14.48;2.35;;;5.60;99.90;;;;;;4999216;28;20115;-53
2023/01/15 04:18:28;;;;;;;15.55;2.00;;;5.70;99.90;;;;;;5007217;28;20172;-52
2023/01/15 04:20:54;;;;;;;15.43;2.53;;;5.60;99.90;;;;;;5013461;28;20126;-53
2023/01/15 04:23:20;;;;;;;13.55;2.17;;;5.60;99.90;;;;;;5006925;28;20144;-51
2023/01/15 04:25:46;;;;;;;12.63;2.40;;;5.60;99.90;;;;;;5008416;28;20058;-52
2023/01/15 04:28:12;;;;;;;12.70;2.10;;;5.60;99.90;;;;;;4995190;28;20051;-52
2023/01/15 04:30:37;;;;;;;14.40;2.28;;;5.60;99.90;;;;;;5001824;28;20052;-52
2023/01/15 04:33:04;;;;;;;15.30;3.05;;;5.50;99.90;;;;;;5008513;28;20374;-52
2023/01/15 04:35:30;;;;;;;12.68;2.45;;;5.50;99.90;;;;;;5007393;28;20045;-51
2023/01/15 04:37:57;;;;;;;16.88;2.53;;;5.50;99.90;;;;;;4996339;28;20041;-52
2023/01/15 04:45:55;;;;;;;15.95;2.67;;;5.60;99.90;;;;;;5002749;28;20129;-54
2023/01/15 04:48:20;;;;;;;15.00;2.55;;;5.50;99.90;;;;;;5000500;28;20172;-51
2023/01/15 04:50:46;;;;;;;13.13;2.17;;;5.50;99.90;;;;;;5002853;28;20460;-51
2023/01/15 04:53:12;;;;;;;11.38;2.45;;;5.50;99.90;;;;;;5010509;28;20484;-51
2023/01/15 04:55:37;;;;;;;13.80;1.98;;;5.50;99.90;;;;;;5012264;28;20042;-51
2023/01/15 04:58:03;;;;;;;13.15;2.38;;;5.50;99.90;;;;;;5009388;28;20042;-51
2023/01/15 05:00:28;;;;;;;13.10;3.45;;;5.50;99.90;;;;;;5009236;28;20046;-52
2023/01/15 05:02:54;;;;;;;11.65;1.70;;;5.50;99.90;;;;;;5011163;28;20045;-51
2023/01/15 05:05:20;;;;;;;12.65;2.03;;;5.50;99.90;;;;;;5010694;28;20455;-51
2023/01/15 05:07:45;;;;;;;13.90;2.30;;;5.50;99.90;;;;;;5003899;28;20504;-51
2023/01/15 05:10:11;;;;;;;12.35;2.10;;;5.50;99.90;;;;;;5011625;28;20053;-53
2023/01/15 05:12:36;;;;;;;8.55;2.45;;;5.50;99.90;;;;;;5010622;28;20030;-51
2023/01/15 05:15:02;;;;;;;14.48;2.10;;;5.40;99.90;;;;;;5010526;28;20053;-51
2023/01/15 05:17:28;;;;;;;13.65;2.10;;;5.50;99.90;;;;;;5005716;28;20184;-53
2023/01/15 05:19:53;;;;;;;13.05;2.40;;;5.50;99.90;;;;;;5005547;28;20034;-53
2023/01/15 05:22:19;;;;;;;15.93;2.33;;;5.50;99.90;;;;;;5002624;28;20060;-51
2023/01/15 05:24:45;;;;;;;13.00;2.15;;;5.50;99.90;;;;;;5007818;28;20050;-51
2023/01/15 05:27:10;;;;;;;8.90;2.10;;;5.50;99.90;;;;;;5007163;28;20046;-52
2023/01/15 05:29:36;;;;;;;16.63;2.30;;;5.40;99.90;;;;;;5004268;28;20098;-53
2023/01/15 05:32:01;;;;;;;12.50;2.50;;;5.50;99.90;;;;;;5007319;28;20564;-52
2023/01/15 05:34:27;;;;;;;10.98;2.58;;;5.40;99.90;;;;;;5003063;28;20436;-52
2023/01/15 05:36:52;;;;;;;11.63;2.70;;;5.40;99.90;;;;;;5007561;28;20042;-53
2023/01/15 05:39:18;;;;;;;12.73;2.65;;;5.40;99.90;;;;;;5006904;28;20345;-55
2023/01/15 05:41:49;;;;;;;11.63;1.83;;;5.40;99.90;;;;;;5008114;28;20042;-52
2023/01/15 05:44:19;;;;;;;10.32;1.80;;;5.40;99.90;;;;;;5004710;28;20444;-52
2023/01/15 05:46:46;;;;;;;17.08;2.22;;;5.40;99.90;;;;;;5007763;28;20133;-53
2023/01/15 05:49:15;;;;;;;14.27;2.28;;;5.50;99.90;;;;;;5004966;28;20042;-52
2023/01/15 05:51:41;;;;;;;8.35;1.80;;;5.50;99.90;;;;;;5016551;28;20057;-52
2023/01/15 05:54:10;;;;;;;11.27;1.85;;;5.50;99.90;;;;;;5005802;28;20069;-54
2023/01/15 05:56:37;;;;;;;10.35;2.08;;;5.60;99.90;;;;;;5006706;28;20096;-54
2023/01/15 05:59:03;;;;;;;14.88;2.97;;;5.50;99.90;;;;;;5002200;28;20609;-53
2023/01/15 06:01:28;;;;;;;9.50;2.45;;;5.50;99.90;;;;;;5023066;28;20048;-55
2023/01/15 06:03:57;;;;;;;14.63;2.30;;;5.50;99.90;;;;;;5008690;28;20038;-53
2023/01/15 06:06:23;;;;;;;14.63;2.10;;;5.40;99.90;;;;;;5004614;28;20077;-51
2023/01/15 06:08:48;;;;;;;17.13;1.85;;;5.40;99.90;;;;;;5003647;28;20108;-52
2023/01/15 06:11:14;;;;;;;12.02;2.15;;;5.40;99.90;;;;;;5001104;28;20392;-51
2023/01/15 06:13:40;;;;;;;9.25;1.80;;;5.40;99.90;;;;;;5001080;28;20124;-52
2023/01/15 06:16:07;;;;;;;13.95;2.50;;;5.30;99.90;;;;;;5002292;28;20741;-55
2023/01/15 06:18:34;;;;;;;14.32;2.72;;;;;;;;;;5014732;28;20046;-54
2023/01/15 06:21:07;;;;;;;9.63;2.30;;;5.30;99.90;;;;;;5015093;28;20049;-54
2023/01/15 06:23:36;;;;;;;17.40;2.22;;;5.20;99.90;;;;;;5012403;28;20355;-56
2023/01/15 06:26:04;;;;;;;13.27;2.35;;;5.20;99.90;;;;;;5011642;28;20133;-54
2023/01/15 06:28:30;;;;;;;12.05;2.55;;;5.20;99.90;;;;;;5002098;28;20039;-56
2023/01/15 06:30:56;;;;;;;13.60;2.05;;;;;;;;;;5005081;28;20404;-55
2023/01/15 06:33:22;;;;;;;15.10;2.33;;;5.10;99.90;;;;;;5001895;28;20168;-54
2023/01/15 06:35:47;;;;;;;10.38;2.08;;;5.10;99.90;;;;;;5001518;28;20050;-53
2023/01/15 06:38:13;;;;;;;9.90;2.10;;;5.00;99.90;;;;;;5006604;28;20468;-55
2023/01/15 06:40:39;;;;;;;8.85;1.58;;;5.00;99.90;;;;;;4999849;28;20037;-55
2023/01/15 06:48:33;;;;;;;15.38;1.98;;;;;;;;;;5000735;28;20054;-55
2023/01/15 06:50:59;;;;;;;12.73;2.13;;;4.90;99.90;;;;;;5001653;28;20136;-52
2023/01/15 06:53:24;;;;;;;10.43;2.00;;;4.90;99.90;;;;;;5003117;28;20523;-55
2023/01/15 06:55:50;;;;;;;13.55;2.13;;;4.90;99.90;;;;;;5000768;28;20045;-52
2023/01/15 06:58:16;;;;;;;12.52;1.80;;;4.80;99.90;;;;;;5003242;28;20049;-53
2023/01/15 07:00:43;;;;;;;13.43;1.85;;;4.80;99.90;;;;;;5003316;28;20116;-53
2023/01/15 07:03:13;;;;;;;9.13;1.67;;;4.80;99.90;;;;;;5004019;28;20080;-52
2023/01/15 07:05:39;;;;;;;5.22;1.73;;;4.70;99.90;;;;;;5004459;28;20092;-51
2023/01/15 07:08:05;;;;;;;8.63;1.70;;;4.60;99.90;;;;;;5009549;28;20046;-53
2023/01/15 07:10:34;;;;;;;8.48;1.58;;;4.70;99.90;;;;;;5002120;28;20123;-55
2023/01/15 07:12:59;;;;;;;10.93;1.67;;;4.70;99.90;;;;;;5006861;28;20042;-51
2023/01/15 07:15:25;;;;;;;8.88;1.70;;;4.60;99.90;;;;;;5012195;28;20125;-50
2023/01/15 07:17:55;;;;;;;12.32;1.92;;;4.60;99.90;;;;;;5011543;28;20088;-53
2023/01/15 07:20:20;;;;;;;9.68;1.73;;;4.50;99.90;;;;;;5006805;28;20035;-52
2023/01/15 07:22:50;;;;;;;13.35;1.90;;;4.50;99.90;;;;;;4997900;28;20398;-52
2023/01/15 07:25:16;;;;;;;13.00;1.83;;;4.50;99.90;;;;;;5008063;28;20053;-54
2023/01/15 07:27:42;;;;;;;11.18;2.15;;;4.50;99.90;;;;;;5004220;28;20443;-56
2023/01/15 07:30:08;;;;;;;11.40;2.17;;;4.50;99.90;;;;;;5003141;28;20073;-51
2023/01/15 07:32:33;;;;;;;10.73;1.80;;;4.50;99.90;;;;;;5003533;28;20408;-51
2023/01/15 07:34:59;;;;;;;11.02;1.80;;;4.60;99.90;;;;;;5003234;28;20050;-55
2023/01/15 07:37:24;;;;;;;13.52;2.10;;;4.60;99.90;;;;;;5002499;28;20116;-51
2023/01/15 07:39:50;;;;;;;9.70;2.17;;;4.60;99.90;;;;;;5001756;28;20041;-51
2023/01/15 07:50:28;;;;;;;11.73;2.10;;;4.50;99.90;;;;;;5003651;28;20046;-53
2023/01/15 07:52:54;;;;;;;11.18;2.05;;;4.50;99.90;;;;;;5000656;28;20037;-52
2023/01/15 07:55:21;;;;;;;10.57;1.88;;;4.50;99.90;;;;;;5003367;28;20373;-52
2023/01/15 07:57:46;;;;;;;13.95;1.77;;;4.50;99.90;;;;;;5002074;28;20399;-55
2023/01/15 08:00:17;;;;;;;14.85;2.53;;;4.50;99.90;;;;;;5003933;28;20097;-52
2023/01/15 08:02:44;;;;;;;12.05;2.75;;;4.50;99.90;;;;;;4997694;28;20061;-53
2023/01/15 08:05:11;;;;;;;14.82;2.20;;;4.40;99.90;;;;;;5001627;28;20133;-51
2023/01/15 08:07:40;;;;;;;10.65;1.70;;;4.40;99.90;;;;;;5002872;28;20061;-51
2023/01/15 08:10:08;;;;;;;10.43;1.92;;;4.40;99.90;;;;;;5016914;28;20044;-51
2023/01/15 08:15:17;;;;;;;14.82;2.33;;;4.30;99.90;;;;;;5003201;28;20297;-51
2023/01/15 08:17:45;;;;;;;13.68;2.08;;;4.40;99.90;;;;;;5007429;28;20392;-52
2023/01/15 08:20:20;;;;;;;5.43;1.58;;;4.40;99.90;;;;;;5013475;28;20539;-51
2023/01/15 08:22:46;;;;;;;9.32;2.13;;;4.40;99.90;;;;;;5006009;28;20038;-51
2023/01/15 08:25:15;;;;;;;9.27;1.60;;;4.50;99.90;;;;;;5013329;28;20100;-53
2023/01/15 08:27:41;;;;;;;8.18;2.05;;;4.50;99.90;;;;;;5012613;28;20061;-51
2023/01/15 08:30:12;;;;;;;7.50;1.58;;;4.50;99.90;;;;;;5007601;28;20380;-51
2023/01/15 08:32:38;;;;;;;6.88;1.52;;;4.50;99.90;;;;;;5011287;28;20038;-51
2023/01/15 08:35:04;;;;;;;8.13;1.48;;;4.50;99.90;;;;;;5011440;28;20048;-51
2023/01/15 08:37:30;;;;;;;9.80;2.00;;;4.60;99.90;;;;;;5011159;28;20127;-52
2023/01/15 08:39:55;;;;;;;9.27;1.80;;;4.60;99.90;;;;;;5010552;28;20069;-53
2023/01/15 08:42:21;;;;;;;10.23;1.48;;;4.60;99.90;;;;;;5005653;28;20132;-53
2023/01/15 08:44:47;;;;;;;10.57;1.83;;;4.70;99.90;;;;;;4992454;28;20382;-50
2023/01/15 08:47:14;;;;;;;10.35;1.70;;;4.70;99.90;;;;;;5006142;28;20034;-49
2023/01/15 08:49:40;;;;;;;11.48;1.80;;;4.70;99.90;;;;;;5006202;28;20049;-49
2023/01/15 08:52:05;;;;;;;9.20;1.70;;;4.90;99.90;;;;;;5011051;28;20041;-49
2023/01/15 08:54:31;;;;;;;9.38;1.73;;;5.00;99.90;;;;;;5010832;28;20128;-51
2023/01/15 08:56:58;;;;;;;10.95;1.70;;;5.20;99.90;;;;;;5011936;28;20049;-50
2023/01/15 08:59:24;;;;;;;9.52;1.83;;;5.40;99.90;;;;;;5002572;28;20419;-50
2023/01/15 09:01:50;;;;;;;7.72;1.48;;;5.60;99.90;;;;;;5016263;28;20046;-51
2023/01/15 09:04:17;;;;;;;9.77;2.17;;;5.70;99.90;;;;;;5005912;28;20112;-52
2023/01/15 09:06:44;;;;;;;12.77;1.87;;;5.80;99.90;;;;;;5005155;28;20046;-49
2023/01/15 09:09:10;;;;;;;11.73;2.00;;;6.00;99.90;;;;;;5007386;28;20037;-50
2023/01/15 09:11:39;;;;;;;11.43;2.05;;;6.10;99.90;;;;;;5011627;28;20038;-49
2023/01/15 09:14:06;;;;;;;10.60;1.73;;;6.10;99.90;;;;;;5008923;28;20049;-49
2023/01/15 09:16:32;;;;;;;10.75;1.65;;;6.30;99.90;;;;;;4987415;28;20049;-50
2023/01/15 09:18:58;;;;;;;10.75;2.00;;;6.30;99.90;;;;;;4997865;28;20042;-53
2023/01/15 09:21:23;;;;;;;9.40;1.90;;;6.40;99.90;;;;;;5002676;28;20034;-50
2023/01/15 09:23:49;;;;;;;8.93;1.90;;;6.40;99.90;;;;;;4999987;28;20049;-49
2023/01/15 09:26:36;;;;;;;7.90;1.60;;;6.50;99.90;;;;;;5006475;28;20093;-49
2023/01/15 09:29:03;;;;;;;10.43;1.90;;;6.50;99.90;;;;;;4998896;28;20468;-49
2023/01/15 09:31:30;;;;;;;7.53;1.67;;;6.60;99.90;;;;;;4998389;28;20038;-53
2023/01/15 09:33:56;;;;;;;12.05;1.70;;;6.50;99.90;;;;;;4998759;28;20057;-50
2023/01/15 09:36:30;;;;;;;8.27;1.45;;;6.50;99.90;;;;;;5005989;28;20037;-51
2023/01/15 09:38:57;;;;;;;7.30;2.05;;;6.40;99.90;;;;;;5002841;28;20038;-50
2023/01/15 09:44:12;;;;;;;8.10;1.75;;;6.10;99.90;;;;;;5012281;28;20053;-49
2023/01/15 09:47:07;;;;;;;8.95;1.90;;;6.00;99.90;;;;;;5009077;28;20088;-51
2023/01/15 09:50:10;;;;;;;10.10;1.85;;;5.90;99.90;;;;;;5004534;28;20050;-51
2023/01/15 09:53:09;;;;;;;18.05;2.60;;;5.80;99.90;;;;;;4996180;28;20404;-49
2023/01/15 09:55:44;;;;;;;11.13;2.08;;;5.70;99.90;;;;;;5008493;28;20511;-48
2023/01/15 09:58:12;;;;;;;10.70;2.08;;;5.50;99.90;;;;;;5011361;28;20095;-49
2023/01/15 10:00:39;;;;;;;;;;;5.40;99.90;;;;;;5005633;28;20038;-49
2023/01/15 10:03:23;;;;;;;11.97;1.60;;;5.20;99.90;;;;;;5004487;28;19976;-49
2023/01/15 10:05:55;;;;;;;11.18;1.95;;;5.20;99.90;;;;;;5002288;28;20480;-54
2023/01/15 10:08:29;;;;;;;10.23;1.42;;;5.20;99.90;;;;;;5011322;28;20033;-53
2023/01/15 10:11:03;;;;;;;7.55;1.88;;;5.10;99.90;;;;;;5001245;28;20053;-54
2023/01/15 10:13:45;;;;;;;6.70;1.23;;;5.20;99.90;;;;;;5011069;28;20955;-53
2023/01/15 10:16:21;;;;;;;8.55;1.65;;;5.20;99.90;;;;;;5005752;28;20057;-54
2023/01/15 10:18:47;;;;;;;8.80;2.17;;;5.40;99.90;;;;;;5009628;28;20129;-54
2023/01/15 10:21:31;;;;;;;6.43;1.42;;;5.40;99.90;;;;;;5003483;28;20124;-52
2023/01/15 10:24:19;;;;;;;6.93;1.83;;;5.60;99.90;;;;;;5007133;28;20057;-54
2023/01/15 10:26:56;;;;;;;7.38;1.42;;;5.60;99.90;;;;;;5004736;28;20069;-51
2023/01/15 10:29:36;;;;;;;9.75;2.10;;;5.50;99.90;;;;;;5006077;28;20041;-52
2023/01/15 10:32:28;;;;;;;10.07;1.80;;;5.50;99.90;;;;;;5006395;28;20518;-50
2023/01/15 10:35:30;;;;;;;11.00;2.05;;;5.50;99.90;;;;;;5003859;28;20050;-51
2023/01/15 10:38:13;;;;;;;13.32;1.70;;;5.50;99.90;;;;;;5017843;28;21083;-52
2023/01/15 10:40:48;;;;;;;10.18;2.17;;;5.50;99.90;;;;;;5000483;28;20042;-52
2023/01/15 10:43:26;;;;;;;8.38;2.17;;;5.60;99.90;;;;;;5004541;28;20389;-54
2023/01/15 10:45:58;;;;;;;17.17;2.28;;;5.70;99.90;;;;;;5007184;28;20073;-53
2023/01/15 10:48:39;;;;;;;10.68;1.73;;;5.80;99.90;;;;;;5003244;28;20088;-51
2023/01/15 10:51:18;;;;;;;11.27;1.70;;;5.90;99.90;;;;;;5000812;28;20042;-51
2023/01/15 10:54:09;;;;;;;10.65;2.08;;;6.10;99.90;;;;;;4999368;28;20046;-51
2023/01/15 10:56:47;;;;;;;9.07;2.13;;;6.20;99.90;;;;;;5000325;28;20038;-50
2023/01/15 10:59:22;;;;;;;9.13;1.50;;;6.30;99.90;;;;;;4999821;28;20054;-51
2023/01/15 11:01:54;;;;;;;15.50;2.42;;;6.30;99.90;;;;;;5002808;28;20512;-51
2023/01/15 11:04:20;;;;;;;14.27;2.10;;;6.30;99.90;;;;;;5005278;28;20060;-50
2023/01/15 11:06:46;;;;;;;11.82;2.28;;;6.40;99.90;;;;;;5001363;28;20061;-52
2023/01/15 11:09:29;;;;;;;10.07;1.65;;;6.30;99.90;;;;;;4999168;28;20053;-52
2023/01/15 11:20:43;;;;;;;9.63;1.70;;;6.10;99.90;;;;;;5005175;28;20046;-50
2023/01/15 11:23:15;;;;;;;14.05;2.20;;;5.90;99.90;;;;;;4998155;28;20085;-50
2023/01/15 11:26:16;;;;;;;15.57;2.30;;;5.90;99.90;;;;;;5002140;28;20042;-49
2023/01/15 11:28:43;;;;;;;5.95;1.58;;;6.00;99.90;;;;;;4995229;28;20127;-50
2023/01/15 11:31:10;;;;;;;9.45;1.80;;;6.10;99.90;;;;;;4999701;28;20047;-48
2023/01/15 11:33:37;;;;;;;7.13;1.40;;;6.10;99.90;;;;;;5005721;28;20034;-52
2023/01/15 11:36:06;;;;;;;8.90;2.03;;;6.20;99.90;;;;;;5006913;28;20045;-52
2023/01/15 11:38:48;;;;;;;8.13;1.77;;;6.20;99.90;;;;;;5005938;28;20034;-50
2023/01/15 11:53:02;;;;;;;9.10;1.70;;;6.20;99.90;;;;;;5004148;28;20475;-54
2023/01/15 11:55:28;;;;;;;9.52;1.67;;;6.10;99.90;;;;;;5000204;28;20092;-53
2023/01/15 11:57:56;;;;;;;8.57;2.08;;;6.10;99.90;;;;;;5004177;28;20665;-52
2023/01/15 12:00:27;;;;;;;14.40;2.33;;;6.00;99.90;;;;;;5003797;28;20436;-51
2023/01/15 12:03:01;;;;;;;8.02;1.60;;;6.10;99.90;;;;;;5002761;28;20073;-50
2023/01/15 12:05:30;;;;;;;11.45;2.25;;;6.20;99.90;;;;;;4998642;28;20120;-51
2023/01/15 12:08:00;;;;;;;8.82;1.92;;;6.30;99.90;;;;;;5004895;28;20046;-50
2023/01/15 12:13:40;;;;;;;11.02;2.28;;;6.60;99.90;;;;;;5003803;28;20073;-50
2023/01/15 12:16:29;;;;;;;13.70;2.50;;;6.60;99.90;;;;;;5009024;28;20045;-49
2023/01/15 12:19:21;;;;;;;9.93;1.98;;;6.60;99.90;;;;;;5025065;28;20034;-50
2023/01/15 12:22:16;;;;;;;11.50;2.25;;;6.60;99.90;;;;;;5004313;28;20475;-49
2023/01/15 12:25:23;;;;;;;10.73;2.50;;;6.70;99.90;;;;;;4985527;28;20085;-53
2023/01/15 12:27:57;;;;;;;10.90;1.85;;;6.70;99.90;;;;;;5005959;28;20124;-49
2023/01/15 12:30:41;;;;;;;14.60;2.05;;;6.80;99.90;;;;;;5005197;28;20523;-49
2023/01/15 12:33:22;;;;;;;13.15;2.22;;;6.90;99.90;;;;;;5006360;28;20407;-53
2023/01/15 12:36:02;;;;;;;5.90;1.67;;;6.90;99.90;;;;;;4997301;28;20548;-50
2023/01/15 12:38:44;;;;;;;11.63;2.55;;;6.90;99.90;;;;;;5000318;28;20045;-50
2023/01/15 12:41:14;;;;;;;7.95;1.90;;;6.90;99.90;;;;;;5001336;28;20049;-52
2023/01/15 12:46:31;;;;;;;8.35;1.70;;;7.00;99.90;;;;;;5012903;28;20054;-50
2023/01/15 12:49:08;;;;;;;11.77;2.00;;;6.90;99.90;;;;;;5009175;28;20113;-49
2023/01/15 12:51:46;;;;;;;6.03;1.98;;;6.90;99.90;;;;;;4993370;28;20038;-53
2023/01/15 12:54:15;;;;;;;10.77;2.40;;;6.90;99.90;;;;;;4993713;28;20050;-51
2023/01/15 12:57:07;;;;;;;10.18;1.95;;;6.80;99.90;;;;;;5009253;28;20384;-51
2023/01/15 12:59:51;;;;;;;10.00;1.90;;;6.70;99.90;;;;;;5013081;28;20059;-50
2023/01/15 13:02:47;;;;;;;6.63;1.75;;;6.80;99.90;;;;;;4994615;28;20442;-52
2023/01/15 13:05:32;;;;;;;9.15;1.90;;;6.90;99.90;;;;;;4997165;28;20050;-52
2023/01/15 13:08:36;;;;;;;11.10;2.13;;;7.10;99.90;;;;;;5014041;28;20116;-50
2023/01/15 13:11:02;;;;;;;11.32;2.22;;;7.30;99.90;;;;;;5015585;28;20053;-51
2023/01/15 13:13:31;;;;;;;7.40;1.48;;;;;;;;;;5015483;28;20109;-50
2023/01/15 13:16:13;;;;;;;11.60;2.15;;;7.30;99.90;;;;;;5016883;28;20057;-50
2023/01/15 13:19:00;;;;;;;8.88;2.55;;;7.20;99.90;;;;;;5017073;28;20054;-52
2023/01/15 13:21:30;;;;;;;9.40;2.33;;;7.20;99.90;;;;;;5014781;28;20534;-51
2023/01/15 13:24:21;;;;;;;7.60;1.88;;;7.10;99.90;;;;;;5017085;28;20069;-51
2023/01/15 13:27:13;;;;;;;14.98;2.80;;;7.00;99.90;;;;;;5006354;28;20404;-52
2023/01/15 13:30:01;;;;;;;11.32;1.98;;;6.90;99.90;;;;;;5013493;28;20038;-51
2023/01/15 13:32:41;;;;;;;10.20;2.17;;;6.70;99.90;;;;;;5016421;28;20077;-50
2023/01/15 13:35:36;;;;;;;7.78;2.22;;;6.70;99.90;;;;;;4998092;28;20132;-50
2023/01/15 13:38:07;;;;;;;10.18;2.30;;;6.60;99.90;;;;;;5015106;28;20137;-50
2023/01/15 13:40:38;;;;;;;8.48;1.85;;;6.60;99.90;;;;;;5015098;28;20130;-51
2023/01/15 13:43:06;;;;;;;10.30;2.08;;;6.60;99.90;;;;;;5015971;28;20077;-52
2023/01/15 13:45:48;;;;;;;9.82;2.25;;;6.80;99.90;;;;;;5016454;28;20050;-51
2023/01/15 13:48:42;;;;;;;6.50;1.80;;;6.90;99.90;;;;;;5016232;28;20124;-53
2023/01/15 13:51:20;;;;;;;8.55;1.83;;;6.80;99.90;;;;;;5016149;28;20085;-52
2023/01/15 13:53:48;;;;;;;5.13;1.48;;;6.80;99.90;;;;;;5016376;28;20085;-51
2023/01/15 13:56:31;;;;;;;5.13;1.42;;;6.80;99.90;;;;;;5013583;28;20251;-49
2023/01/15 13:59:04;;;;;;;7.22;1.80;;;6.70;99.90;;;;;;5015938;28;20382;-49
2023/01/15 14:01:29;;;;;;;8.25;1.77;;;6.60;99.90;;;;;;5011986;28;20034;-50
2023/01/15 14:04:14;;;;;;;6.88;1.80;;;6.50;99.90;;;;;;5014704;28;20056;-52
2023/01/15 14:06:50;;;;;;;7.07;1.88;;;6.50;99.90;;;;;;5016303;28;20053;-50
2023/01/15 14:09:19;;;;;;;8.40;1.80;;;6.50;99.90;;;;;;5018442;28;20097;-50
2023/01/15 14:11:53;;;;;;;7.95;1.80;;;6.40;99.90;;;;;;5018087;28;20052;-52